Cheboygan, MI

11:02 PM EST on December 17, 2017 (GMT -0500)
Cheboygan

Weather History for KSLH - October, 2013

Change the Weather History Date:

Saturday, October 26, 2013

  Actual Average (KMCD) Record (KMCD)
Temperature  
Mean Temperature 42 °F -  
Max Temperature 46 °F 47 °F 67 °F (1989)
Min Temperature 37 °F 37 °F 25 °F (1976)
Degree Days  
Heating Degree Days 24    
Moisture  
Dew Point 36 °F    
Average Humidity 77    
Maximum Humidity 88    
Minimum Humidity 62    
Precipitation  
Precipitation 0.00 in - - ()
Sea Level Pressure  
Sea Level Pressure 29.69 in    
Wind  
Wind Speed 15 mph (West)    
Max Wind Speed 28 mph    
Max Gust Speed 51 mph    
Visibility 9 miles    
Events Rain    
Averages and records for this station are not official NWS values.
T = Trace of Precipitation, MM = Missing Value Source: NWS Daily Summary

Daily Weather History Graph

Daily Weather History Graph

Search for Another Location

Airport or City:

Trip Planner

Search our weather history database for the weather conditions in past years. The results will help you decide how hot, cold, wet, or windy it might be!

Date:

Astronomy

Oct. 26, 2013 Rise Set
Actual Time 8:09 AM EDT 6:33 PM EDT
Civil Twilight 7:39 AM EDT 7:04 PM EDT
Nautical Twilight 7:04 AM EDT 7:38 PM EDT
Astronomical Twilight 6:30 AM EDT 8:13 PM EDT
Moon No Moon Rise 2:27 PM EDT (10/26)
Length of Visible Light 11h 24m
Length of Day
10h 23m
Waning Gibbous, 53% of the Moon is Illuminated
Oct 26
Waning Gibbous
Oct 26
Last Quarter
Nov 3
New
Nov 10
First Quarter
Nov 17
Full

Hourly Weather History & Observations

Time (EDT) Temp. Windchill Dew Point Humidity Pressure Visibility Wind Dir Wind Speed Gust Speed Precip Events Conditions
12:16 AM 40.5 °F 32.5 °F 35.6 °F 83% 29.74 in 5.0 mi SSW 15.0 mph 23.0 mph N/A   Unknown
12:36 AM 40.1 °F 31.0 °F 36.0 °F 85% 29.72 in 4.0 mi SSW 18.4 mph 28.8 mph N/A   Unknown
12:56 AM 40.6 °F 32.7 °F 37.2 °F 88% 29.70 in 5.0 mi SSW 15.0 mph 23.0 mph N/A Rain Light Rain
1:16 AM 41.0 °F 32.8 °F 37.4 °F 87% 29.67 in 3.0 mi SSW 16.1 mph 27.6 mph N/A   Unknown
1:36 AM 41.0 °F 32.2 °F 37.4 °F 87% 29.65 in 7.0 mi SSW 18.4 mph 25.3 mph N/A Rain Light Rain
1:55 AM 41.4 °F 33.0 °F 37.8 °F 87% 29.64 in 7.0 mi SSW 17.3 mph 29.9 mph N/A Rain Light Rain
2:16 AM 41.9 °F 33.1 °F 37.9 °F 86% 29.62 in 10.0 mi SSW 19.6 mph 29.9 mph N/A Rain Light Rain
2:36 AM 41.9 °F 33.4 °F 37.9 °F 86% 29.61 in 7.0 mi SSW 18.4 mph 26.5 mph N/A Rain Light Rain
2:56 AM 42.1 °F 33.6 °F 37.9 °F 85% 29.59 in 10.0 mi SSW 18.4 mph 25.3 mph N/A Rain Light Rain
3:16 AM 42.3 °F 34.8 °F 37.9 °F 85% 29.58 in 7.0 mi SSW 15.0 mph 25.3 mph N/A Rain Light Rain
3:36 AM 42.4 °F 34.4 °F 38.3 °F 85% 29.57 in 10.0 mi SSW 17.3 mph 24.2 mph N/A   Unknown
3:56 AM 42.8 °F 35.4 °F 38.3 °F 84% 29.56 in 10.0 mi SSW 15.0 mph 25.3 mph N/A   Unknown
4:16 AM 42.8 °F 34.3 °F 38.5 °F 85% 29.55 in 5.0 mi SSW 19.6 mph 25.3 mph N/A   Overcast
4:36 AM 42.8 °F 35.4 °F 38.8 °F 86% 29.53 in 10.0 mi SW 15.0 mph 23.0 mph N/A Rain Light Rain
4:56 AM 42.8 °F 35.8 °F 39.0 °F 86% 29.52 in 10.0 mi SSW 13.8 mph 20.7 mph N/A   Mostly Cloudy
5:16 AM 43.2 °F 38.4 °F 39.2 °F 86% 29.55 in 2.5 mi WSW 8.1 mph 50.6 mph N/A   Unknown
5:35 AM 42.8 °F 37.0 °F 38.5 °F 85% 29.54 in 7.0 mi SW 10.4 mph 16.1 mph N/A   Unknown
5:56 AM 42.6 °F 37.8 °F 38.7 °F 86% 29.55 in 10.0 mi WSW 8.1 mph - N/A   Mostly Cloudy
6:16 AM 44.2 °F 37.6 °F 39.6 °F 84% 29.55 in 10.0 mi West 13.8 mph 18.4 mph N/A   Mostly Cloudy
6:35 AM 44.6 °F 38.8 °F 38.7 °F 80% 29.56 in 10.0 mi West 11.5 mph 17.3 mph N/A   Mostly Cloudy
6:56 AM 44.2 °F 37.6 °F 38.5 °F 80% 29.56 in 10.0 mi West 13.8 mph 19.6 mph N/A   Mostly Cloudy
7:16 AM 44.1 °F 38.6 °F 37.8 °F 78% 29.56 in 10.0 mi West 10.4 mph 18.4 mph N/A   Mostly Cloudy
7:36 AM 43.3 °F 38.1 °F 37.4 °F 80% 29.57 in 10.0 mi West 9.2 mph - N/A   Scattered Clouds
7:56 AM 42.3 °F 36.8 °F 36.9 °F 81% 29.58 in 10.0 mi West 9.2 mph - N/A   Clear
8:16 AM 43.2 °F 37.9 °F 37.4 °F 80% 29.58 in 10.0 mi West 9.2 mph - N/A   Mostly Cloudy
8:36 AM 44.2 °F 38.4 °F 36.9 °F 75% 29.58 in 10.0 mi West 11.5 mph - N/A   Mostly Cloudy
8:56 AM 43.3 °F 36.5 °F 37.9 °F 81% 29.59 in 7.0 mi West 13.8 mph 21.9 mph N/A   Mostly Cloudy
9:15 AM 42.4 °F 35.3 °F 38.3 °F 85% 29.60 in 3.0 mi West 13.8 mph 21.9 mph N/A   Unknown
9:36 AM 42.3 °F 36.8 °F 38.8 °F 88% 29.60 in 3.0 mi West 9.2 mph - N/A Rain Light Rain
9:56 AM 42.8 °F 37.5 °F 39.2 °F 87% 29.60 in 10.0 mi West 9.2 mph - N/A   Overcast
10:16 AM 43.9 °F 38.8 °F 39.2 °F 84% 29.61 in 10.0 mi WNW 9.2 mph - N/A   Mostly Cloudy
10:36 AM 42.8 °F 35.1 °F 37.2 °F 81% 29.61 in 10.0 mi WNW 16.1 mph 23.0 mph N/A   Mostly Cloudy
10:56 AM 43.0 °F 35.7 °F 36.5 °F 78% 29.62 in 10.0 mi WNW 15.0 mph 24.2 mph N/A   Mostly Cloudy
11:16 AM 44.8 °F 38.3 °F 36.3 °F 72% 29.62 in 10.0 mi West 13.8 mph 17.3 mph N/A   Scattered Clouds
11:36 AM 44.2 °F 36.4 °F 33.8 °F 67% 29.62 in 10.0 mi West 18.4 mph 32.2 mph N/A   Scattered Clouds
11:56 AM 44.8 °F 36.2 °F 32.9 °F 63% 29.63 in 10.0 mi WNW 23.0 mph 32.2 mph N/A   Mostly Cloudy
12:16 PM 44.6 °F 36.4 °F 33.3 °F 64% 29.64 in 10.0 mi WNW 20.7 mph 25.3 mph N/A   Scattered Clouds
12:36 PM 44.8 °F 35.7 °F 33.4 °F 64% 29.64 in 10.0 mi WNW 25.3 mph 32.2 mph N/A   Mostly Cloudy
12:56 PM 45.9 °F 38.5 °F 34.0 °F 63% 29.65 in 10.0 mi West 18.4 mph 27.6 mph N/A   Mostly Cloudy
1:16 PM 44.2 °F 37.3 °F 36.1 °F 73% 29.65 in 7.0 mi West 15.0 mph 25.3 mph N/A Rain Light Rain
1:36 PM 44.8 °F 36.9 °F 35.8 °F 71% 29.66 in 10.0 mi West 19.6 mph 25.3 mph N/A   Scattered Clouds
1:56 PM 46.6 °F - 34.5 °F 63% 29.66 in 10.0 mi West 20.7 mph 26.5 mph N/A   Mostly Cloudy
2:16 PM 45.9 °F 38.0 °F 34.5 °F 65% 29.66 in 10.0 mi West 20.7 mph 34.5 mph N/A   Mostly Cloudy
2:36 PM 46.4 °F 39.0 °F 34.9 °F 64% 29.66 in 10.0 mi West 19.6 mph 29.9 mph N/A   Scattered Clouds
2:56 PM 46.4 °F 37.5 °F 34.2 °F 62% 29.68 in 10.0 mi WNW 27.6 mph 35.7 mph N/A   Mostly Cloudy
3:16 PM 42.3 °F 35.9 °F 37.2 °F 82% 29.69 in 7.0 mi West 11.5 mph 24.2 mph N/A Rain Light Rain
3:36 PM 44.4 °F 39.0 °F 38.1 °F 79% 29.70 in 10.0 mi West 10.4 mph 18.4 mph N/A   Scattered Clouds
3:56 PM 45.0 °F 37.6 °F 37.6 °F 75% 29.71 in 10.0 mi WNW 17.3 mph 24.2 mph N/A   Mostly Cloudy
4:16 PM 43.5 °F 37.1 °F 36.1 °F 75% 29.72 in 10.0 mi NW 12.7 mph 19.6 mph N/A   Scattered Clouds
4:36 PM 44.2 °F 37.3 °F 35.2 °F 71% 29.74 in 10.0 mi NW 15.0 mph 25.3 mph N/A   Scattered Clouds
4:56 PM 44.1 °F 36.8 °F 33.4 °F 66% 29.75 in 10.0 mi NW 16.1 mph 26.5 mph N/A   Scattered Clouds
5:16 PM 44.1 °F 37.1 °F 32.2 °F 63% 29.76 in 10.0 mi NW 15.0 mph 26.5 mph N/A   Scattered Clouds
5:36 PM 43.7 °F 36.3 °F 32.0 °F 63% 29.77 in 10.0 mi NW 16.1 mph 21.9 mph N/A   Mostly Cloudy
5:56 PM 43.2 °F 35.0 °F 32.0 °F 65% 29.78 in 10.0 mi WNW 18.4 mph 27.6 mph N/A   Mostly Cloudy
6:15 PM 42.4 °F 36.1 °F 32.0 °F 67% 29.80 in 10.0 mi NW 11.5 mph 18.4 mph N/A   Scattered Clouds
6:36 PM 42.6 °F 35.6 °F 30.7 °F 63% 29.81 in 10.0 mi NW 13.8 mph 26.5 mph N/A   Mostly Cloudy
6:56 PM 41.9 °F 35.9 °F 32.0 °F 68% 29.82 in 10.0 mi WNW 10.4 mph - N/A   Mostly Cloudy
7:16 PM 41.5 °F 35.9 °F 32.5 °F 70% 29.83 in 10.0 mi WNW 9.2 mph - N/A   Mostly Cloudy
7:36 PM 40.8 °F 34.5 °F 32.4 °F 72% 29.84 in 10.0 mi WNW 10.4 mph 21.9 mph N/A   Mostly Cloudy
7:56 PM 39.7 °F 31.9 °F 32.0 °F 74% 29.85 in 10.0 mi WNW 13.8 mph 19.6 mph N/A   Scattered Clouds
8:16 PM 40.1 °F 31.6 °F 32.0 °F 73% 29.86 in 10.0 mi NW 16.1 mph 23.0 mph N/A   Clear
8:36 PM 39.9 °F 32.9 °F 32.0 °F 73% 29.87 in 10.0 mi WNW 11.5 mph 20.7 mph N/A   Clear
8:56 PM 39.6 °F 33.0 °F 32.4 °F 75% 29.88 in 10.0 mi WNW 10.4 mph - N/A   Scattered Clouds
9:16 PM 39.2 °F 32.5 °F 32.5 °F 77% 29.88 in 10.0 mi WNW 10.4 mph 16.1 mph N/A   Scattered Clouds
9:36 PM 39.7 °F 32.3 °F 32.9 °F 77% 29.88 in 10.0 mi NW 12.7 mph 17.3 mph N/A   Scattered Clouds
9:56 PM 40.1 °F 34.1 °F 32.9 °F 75% 29.89 in 10.0 mi WNW 9.2 mph - N/A   Mostly Cloudy
10:16 PM 39.4 °F 33.8 °F 32.2 °F 75% 29.89 in 10.0 mi WNW 8.1 mph - N/A   Mostly Cloudy
10:36 PM 38.3 °F 31.4 °F 32.0 °F 78% 29.90 in 10.0 mi NW 10.4 mph 16.1 mph N/A   Scattered Clouds
10:56 PM 37.8 °F 31.8 °F 32.0 °F 80% 29.91 in 10.0 mi West 8.1 mph - N/A   Scattered Clouds
11:16 PM 38.7 °F 32.9 °F 32.0 °F 77% 29.91 in 10.0 mi WNW 8.1 mph - N/A   Mostly Cloudy
11:36 PM 38.7 °F 32.4 °F 32.0 °F 77% 29.91 in 10.0 mi WNW 9.2 mph - N/A   Mostly Cloudy
11:56 PM 37.6 °F 31.6 °F 32.0 °F 80% 29.91 in 10.0 mi WNW 8.1 mph - N/A   Scattered Clouds